Time;durP1;ratioP1;P1;durP2;ratioP2;P2;SDS_P1;SDS_P2;PMS_P1;PMS_P2;Temp;Humidity;BMP_temperature;BMP_pressure;BME280_temperature;BME280_humidity;BME280_pressure;Samples;Min_cycle;Max_cycle;Signal;HPM_P1;HPM_P2
2023/12/23 00:00:33;;;;;;;4.95;1.35;;;;;;;;;;4948947;28;20050;-79
2023/12/23 00:03:00;;;;;;;5.10;1.20;;;;;;;;;;4989723;28;20379;-79
2023/12/23 00:05:27;;;;;;;1.60;0.93;;;;;;;;;;4994612;28;20058;-79
2023/12/23 00:07:56;;;;;;;3.88;0.80;;;;;;;;;;4984960;28;20039;-79
2023/12/23 00:10:22;;;;;;;1.65;0.68;;;;;;;;;;4975914;28;20027;-79
2023/12/23 00:12:51;;;;;;;2.95;1.30;;;;;;;;;;4968196;28;20535;-78
2023/12/23 00:15:27;;;;;;;1.98;0.93;;;;;;;;;;4952580;28;20046;-78
2023/12/23 00:17:54;;;;;;;1.98;0.70;;;;;;;;;;4959189;28;20051;-77
2023/12/23 00:20:34;;;;;;;5.63;0.90;;;;;;;;;;4965494;28;20132;-78
2023/12/23 00:23:01;;;;;;;2.40;1.00;;;;;;;;;;4956209;28;20029;-79
2023/12/23 00:25:29;;;;;;;4.55;0.90;;;;;;;;;;4966808;28;20047;-78
2023/12/23 00:27:59;;;;;;;2.92;1.20;;;;;;;;;;4947497;28;20047;-78
2023/12/23 00:30:25;;;;;;;2.35;0.93;;;;;;;;;;4958042;28;20039;-79
2023/12/23 00:32:53;;;;;;;1.85;0.70;;;;;;;;;;4937133;28;20449;-77
2023/12/23 00:35:20;;;;;;;2.53;0.80;;;;;;;;;;5002803;28;20042;-79
2023/12/23 00:37:50;;;;;;;1.92;0.82;;;;;;;;;;4949115;28;20051;-78
2023/12/23 00:44:52;;;;;;;4.78;1.00;;;;;;;;;;5001552;28;20406;-78
2023/12/23 00:47:21;;;;;;;3.97;0.70;;;;;;;;;;4990006;28;20039;-78
2023/12/23 00:49:48;;;;;;;2.80;0.70;;;;;;;;;;4959593;28;20039;-77
2023/12/23 00:52:14;;;;;;;5.18;1.23;;;;;;;;;;4947273;28;20054;-77
2023/12/23 00:54:40;;;;;;;3.42;1.23;;;;;;;;;;4987963;28;20050;-80
2023/12/23 00:57:07;;;;;;;3.65;0.98;;;;;;;;;;4985823;28;20417;-80
2023/12/23 00:59:33;;;;;;;2.28;1.00;;;;;;;;;;4991317;28;20041;-79
2023/12/23 01:02:00;;;;;;;3.88;1.20;;;;;;;;;;4974985;28;20043;-79
2023/12/23 01:04:26;;;;;;;4.78;1.10;;;;;;;;;;4933914;28;20058;-78
2023/12/23 01:06:53;;;;;;;1.67;0.90;;;;;;;;;;4988263;28;20039;-78
2023/12/23 01:09:19;;;;;;;3.53;1.00;;;;;;;;;;4962523;28;20039;-79
2023/12/23 01:11:45;;;;;;;4.00;1.05;;;;;;;;;;4994531;28;20407;-79
2023/12/23 01:14:11;;;;;;;2.17;1.40;;;;;;;;;;4943322;28;20489;-79
2023/12/23 01:16:38;;;;;;;3.05;1.00;;;;;;;;;;4950384;28;20030;-79
2023/12/23 01:19:07;;;;;;;5.03;1.55;;;;;;;;;;4965229;28;20066;-79
2023/12/23 01:21:35;;;;;;;1.40;1.13;;;;;;;;;;4933820;28;20031;-79
2023/12/23 01:24:03;;;;;;;2.30;0.70;;;;;;;;;;4959742;28;20041;-80
2023/12/23 01:26:31;;;;;;;3.70;1.05;;;;;;;;;;4959628;28;20043;-79
2023/12/23 01:29:00;;;;;;;2.90;0.90;;;;;;;;;;4961130;28;20043;-78
2023/12/23 01:31:27;;;;;;;2.20;0.85;;;;;;;;;;4948974;28;20042;-79
2023/12/23 01:33:58;;;;;;;2.60;1.00;;;;;;;;;;4966934;28;20039;-78
2023/12/23 01:36:26;;;;;;;1.20;0.80;;;;;;;;;;4956031;28;20042;-79
2023/12/23 01:38:55;;;;;;;5.85;1.00;;;;;;;;;;4983051;28;20513;-79
2023/12/23 01:41:21;;;;;;;4.78;1.52;;;;;;;;;;4995243;28;20100;-79
2023/12/23 01:43:47;;;;;;;5.55;1.27;;;;;;;;;;4965196;28;20043;-79
2023/12/23 01:46:14;;;;;;;5.97;1.60;;;;;;;;;;4983631;28;20043;-79
2023/12/23 01:48:44;;;;;;;1.63;1.10;;;;;;;;;;4993652;28;20032;-79
2023/12/23 01:51:11;;;;;;;3.30;1.05;;;;;;;;;;4976263;28;20035;-79
2023/12/23 01:53:38;;;;;;;4.53;1.00;;;;;;;;;;4973990;28;20043;-80
2023/12/23 01:56:04;;;;;;;3.78;1.33;;;;;;;;;;4978597;28;20045;-79
2023/12/23 01:58:33;;;;;;;2.65;1.10;;;;;;;;;;4935950;28;20042;-81
2023/12/23 02:01:00;;;;;;;2.92;1.42;;;;;;;;;;4934714;28;20035;-79
2023/12/23 02:03:28;;;;;;;3.83;1.60;;;;;;;;;;4996687;28;20036;-79
2023/12/23 02:05:56;;;;;;;;;;;;;;;;;;5012352;28;20055;-79
2023/12/23 02:08:23;;;;;;;6.45;1.10;;;;;;;;;;4949710;28;19914;-79
2023/12/23 02:11:00;;;;;;;4.70;1.10;;;;;;;;;;4964194;28;20043;-79
2023/12/23 02:13:28;;;;;;;4.30;1.30;;;;;;;;;;4945073;28;20031;-79
2023/12/23 02:15:59;;;;;;;6.07;1.30;;;;;;;;;;4959551;28;20051;-79
2023/12/23 02:18:25;;;;;;;4.00;1.27;;;;;;;;;;4960572;28;20039;-79
2023/12/23 02:20:57;;;;;;;5.45;1.83;;;;;;;;;;4963526;28;20049;-79
2023/12/23 02:23:26;;;;;;;6.35;1.50;;;;;;;;;;4981365;28;20047;-80
2023/12/23 02:25:58;;;;;;;4.32;1.60;;;;;;;;;;4988870;28;20051;-79
2023/12/23 02:28:27;;;;;;;3.83;1.20;;;;;;;;;;4965452;28;20039;-79
2023/12/23 02:30:55;;;;;;;2.95;1.35;;;;;;;;;;4963615;28;20043;-80
2023/12/23 02:33:22;;;;;;;2.85;1.30;;;;;;;;;;4972153;28;20039;-80
2023/12/23 02:35:52;;;;;;;4.80;1.27;;;;;;;;;;4969504;28;20039;-80
2023/12/23 02:38:25;;;;;;;;;;;;;;;;;;4991559;28;20039;-79
2023/12/23 02:40:51;;;;;;;5.30;1.38;;;;;;;;;;5038266;28;19925;-79
2023/12/23 02:43:17;;;;;;;3.38;1.67;;;;;;;;;;4940391;28;20047;-79
2023/12/23 02:45:43;;;;;;;5.90;1.40;;;;;;;;;;4985989;28;20043;-80
2023/12/23 02:48:09;;;;;;;4.25;1.17;;;;;;;;;;4991270;28;20062;-78
2023/12/23 02:50:39;;;;;;;4.38;1.25;;;;;;;;;;4994482;28;20058;-79
2023/12/23 02:53:08;;;;;;;5.18;1.02;;;;;;;;;;4998639;28;20050;-80
2023/12/23 02:55:38;;;;;;;4.28;1.33;;;;;;;;;;4954051;28;20507;-79
2023/12/23 02:58:04;;;;;;;2.20;1.40;;;;;;;;;;4970640;28;20039;-80
2023/12/23 03:00:30;;;;;;;5.90;1.38;;;;;;;;;;4992586;28;20058;-79
2023/12/23 03:02:57;;;;;;;5.82;1.30;;;;;;;;;;4963418;28;20054;-80
2023/12/23 03:05:23;;;;;;;4.10;1.27;;;;;;;;;;4955977;28;20387;-78
2023/12/23 03:07:49;;;;;;;3.83;1.30;;;;;;;;;;4939016;28;20051;-80
2023/12/23 03:10:15;;;;;;;3.35;1.73;;;;;;;;;;4953195;28;20040;-79
2023/12/23 03:12:42;;;;;;;4.18;1.13;;;;;;;;;;4971340;28;20039;-79
2023/12/23 03:15:09;;;;;;;6.53;1.40;;;;;;;;;;4956536;28;20216;-80
2023/12/23 03:17:35;;;;;;;2.13;1.25;;;;;;;;;;4964261;28;20046;-79
2023/12/23 03:20:01;;;;;;;1.85;1.05;;;;;;;;;;4959903;28;20043;-79
2023/12/23 03:22:27;;;;;;;3.58;1.10;;;;;;;;;;4961247;28;20046;-79
2023/12/23 03:24:56;;;;;;;2.67;1.00;;;;;;;;;;4965477;28;20049;-79
2023/12/23 03:27:25;;;;;;;3.22;0.90;;;;;;;;;;4951525;28;20039;-79
2023/12/23 03:29:51;;;;;;;1.70;0.80;;;;;;;;;;4969343;28;20122;-79
2023/12/23 03:32:20;;;;;;;2.90;0.75;;;;;;;;;;4988872;28;20043;-80
2023/12/23 03:34:50;;;;;;;2.15;1.42;;;;;;;;;;4973624;28;20037;-80
2023/12/23 03:37:18;;;;;;;1.95;1.15;;;;;;;;;;5001477;28;20036;-79
2023/12/23 03:39:45;;;;;;;1.92;0.70;;;;;;;;;;4995928;28;20057;-80
2023/12/23 03:42:11;;;;;;;0.75;0.68;;;;;;;;;;4969318;28;20039;-79
2023/12/23 03:44:37;;;;;;;0.77;0.70;;;;;;;;;;4962879;28;20039;-79
2023/12/23 03:47:05;;;;;;;2.55;0.82;;;;;;;;;;4984369;28;20049;-80
2023/12/23 03:49:31;;;;;;;0.80;0.80;;;;;;;;;;4952720;28;20044;-80
2023/12/23 03:51:58;;;;;;;1.85;0.75;;;;;;;;;;5007156;28;21238;-79
2023/12/23 03:54:24;;;;;;;1.77;0.98;;;;;;;;;;4970134;28;20031;-79
2023/12/23 03:56:50;;;;;;;3.22;0.80;;;;;;;;;;4933621;28;20043;-80
2023/12/23 03:59:23;;;;;;;0.80;0.75;;;;;;;;;;5009882;28;20043;-79
2023/12/23 04:01:49;;;;;;;1.65;0.90;;;;;;;;;;4983649;28;20039;-78
2023/12/23 04:04:15;;;;;;;1.38;0.93;;;;;;;;;;4965058;28;20039;-79
2023/12/23 04:06:49;;;;;;;2.55;1.00;;;;;;;;;;4989748;28;20047;-80
2023/12/23 04:09:17;;;;;;;1.30;0.82;;;;;;;;;;4939409;28;20044;-79
2023/12/23 04:11:46;;;;;;;0.77;0.70;;;;;;;;;;4971896;28;20031;-80
2023/12/23 04:14:16;;;;;;;0.70;0.70;;;;;;;;;;4955147;28;20035;-79
2023/12/23 04:16:43;;;;;;;0.90;0.75;;;;;;;;;;4983344;28;20049;-79
2023/12/23 04:19:09;;;;;;;1.88;0.70;;;;;;;;;;4978539;28;20594;-79
2023/12/23 04:21:35;;;;;;;1.88;0.70;;;;;;;;;;4956822;28;20035;-78
2023/12/23 04:24:02;;;;;;;1.27;0.70;;;;;;;;;;4958490;28;20044;-79
2023/12/23 04:26:29;;;;;;;0.50;0.50;;;;;;;;;;4963652;28;20039;-79
2023/12/23 04:28:55;;;;;;;0.60;0.60;;;;;;;;;;4940312;28;20039;-79
2023/12/23 04:31:23;;;;;;;1.75;0.60;;;;;;;;;;4968058;28;20043;-80
2023/12/23 04:33:52;;;;;;;1.55;0.80;;;;;;;;;;4962902;28;20049;-79
2023/12/23 04:36:21;;;;;;;;;;;;;;;;;;4958569;28;20035;-80
2023/12/23 04:38:48;;;;;;;1.73;0.63;;;;;;;;;;4939866;28;19920;-80
2023/12/23 04:41:17;;;;;;;0.80;0.40;;;;;;;;;;4984651;28;20050;-80
2023/12/23 04:43:46;;;;;;;0.80;0.70;;;;;;;;;;4956006;28;20387;-80
2023/12/23 04:46:13;;;;;;;1.52;0.80;;;;;;;;;;4980798;28;20035;-80
2023/12/23 04:48:40;;;;;;;0.95;0.57;;;;;;;;;;4978872;28;20055;-80
2023/12/23 04:51:13;;;;;;;0.90;0.60;;;;;;;;;;4961715;28;20043;-79
2023/12/23 04:53:40;;;;;;;1.35;0.57;;;;;;;;;;4953528;28;20509;-80
2023/12/23 04:56:11;;;;;;;0.57;0.50;;;;;;;;;;4978150;28;20043;-80
2023/12/23 04:58:37;;;;;;;2.05;0.40;;;;;;;;;;5000143;28;20046;-80
2023/12/23 05:01:05;;;;;;;2.13;0.65;;;;;;;;;;4962103;28;20039;-80
2023/12/23 05:03:34;;;;;;;1.25;0.50;;;;;;;;;;4969233;28;20035;-80
2023/12/23 05:06:01;;;;;;;0.60;0.60;;;;;;;;;;4989316;28;20043;-79
2023/12/23 05:08:27;;;;;;;0.60;0.60;;;;;;;;;;4913789;28;20039;-79
2023/12/23 05:11:00;;;;;;;0.60;0.60;;;;;;;;;;4958888;28;20043;-79
2023/12/23 05:13:26;;;;;;;0.60;0.60;;;;;;;;;;4946939;28;20039;-79
2023/12/23 05:15:52;;;;;;;1.77;0.60;;;;;;;;;;5023596;28;20046;-78
2023/12/23 05:18:44;;;;;;;1.40;0.60;;;;;;;;;;4944456;28;20049;-79
2023/12/23 05:21:13;;;;;;;0.82;0.50;;;;;;;;;;4979151;28;20057;-79
2023/12/23 05:23:40;;;;;;;0.68;0.60;;;;;;;;;;4979660;28;20075;-79
2023/12/23 05:26:06;;;;;;;1.35;0.40;;;;;;;;;;5023642;28;20430;-78
2023/12/23 05:28:33;;;;;;;0.52;0.50;;;;;;;;;;4945255;28;20047;-79
2023/12/23 05:31:00;;;;;;;2.45;0.43;;;;;;;;;;4970108;28;20056;-79
2023/12/23 05:33:26;;;;;;;3.28;1.10;;;;;;;;;;4969571;28;20046;-78
2023/12/23 05:35:52;;;;;;;1.08;1.02;;;;;;;;;;4977070;28;20031;-79
2023/12/23 05:38:19;;;;;;;0.98;0.60;;;;;;;;;;4957916;28;20042;-79
2023/12/23 05:40:53;;;;;;;0.40;0.40;;;;;;;;;;4984338;28;20042;-79
2023/12/23 05:43:19;;;;;;;0.63;0.50;;;;;;;;;;4984482;28;20035;-79
2023/12/23 05:45:45;;;;;;;0.60;0.40;;;;;;;;;;5001768;28;20046;-79
2023/12/23 05:48:11;;;;;;;1.48;0.70;;;;;;;;;;4976050;28;20043;-78
2023/12/23 05:50:37;;;;;;;0.45;0.45;;;;;;;;;;4974590;28;20056;-78
2023/12/23 05:53:03;;;;;;;0.73;0.50;;;;;;;;;;4989967;28;20109;-78
2023/12/23 05:55:29;;;;;;;0.50;0.50;;;;;;;;;;4980213;28;20043;-78
2023/12/23 05:57:56;;;;;;;1.10;0.50;;;;;;;;;;4978112;28;20050;-78
2023/12/23 06:00:22;;;;;;;0.50;0.50;;;;;;;;;;4979481;28;20050;-78
2023/12/23 06:02:49;;;;;;;0.47;0.30;;;;;;;;;;4973434;28;20417;-78
2023/12/23 06:05:19;;;;;;;2.50;0.65;;;;;;;;;;4959670;28;20040;-78
2023/12/23 06:07:50;;;;;;;0.85;0.55;;;;;;;;;;4980047;28;20039;-79
2023/12/23 06:10:17;;;;;;;1.58;0.55;;;;;;;;;;4960098;28;20035;-79
2023/12/23 06:12:43;;;;;;;0.85;0.70;;;;;;;;;;4945061;28;20409;-78
2023/12/23 06:15:09;;;;;;;2.95;0.70;;;;;;;;;;4940721;28;20036;-78
2023/12/23 06:17:35;;;;;;;1.40;0.52;;;;;;;;;;4974870;28;20042;-78
2023/12/23 06:20:04;;;;;;;0.85;0.52;;;;;;;;;;4971059;28;20384;-79
2023/12/23 06:22:31;;;;;;;1.45;0.80;;;;;;;;;;4974032;28;20402;-81
2023/12/23 06:24:57;;;;;;;0.57;0.45;;;;;;;;;;4980861;28;20385;-79
2023/12/23 06:27:23;;;;;;;1.20;0.90;;;;;;;;;;4955230;28;20054;-81
2023/12/23 06:29:49;;;;;;;1.58;0.93;;;;;;;;;;4969719;28;20043;-79
2023/12/23 06:32:17;;;;;;;1.10;0.90;;;;;;;;;;4951470;28;20035;-78
2023/12/23 06:34:48;;;;;;;1.42;0.73;;;;;;;;;;4972094;28;20031;-79
2023/12/23 06:37:14;;;;;;;0.98;0.60;;;;;;;;;;5001642;28;20539;-81
2023/12/23 06:39:40;;;;;;;1.10;1.00;;;;;;;;;;4941799;28;20043;-82
2023/12/23 06:42:06;;;;;;;1.58;0.52;;;;;;;;;;4953890;28;20046;-80
2023/12/23 06:44:33;;;;;;;0.68;0.68;;;;;;;;;;4981266;28;20046;-81
2023/12/23 06:47:00;;;;;;;1.33;0.73;;;;;;;;;;4993711;28;20068;-81
2023/12/23 06:49:27;;;;;;;1.05;0.70;;;;;;;;;;4967390;28;20414;-79
2023/12/23 06:52:00;;;;;;;1.10;0.80;;;;;;;;;;4962538;28;20047;-79
2023/12/23 06:54:26;;;;;;;2.70;0.90;;;;;;;;;;4953633;28;20031;-81
2023/12/23 06:56:52;;;;;;;4.32;1.83;;;;;;;;;;4935594;28;20058;-80
2023/12/23 06:59:18;;;;;;;0.82;0.80;;;;;;;;;;4946487;28;20044;-81
2023/12/23 07:01:45;;;;;;;4.50;1.60;;;;;;;;;;4947613;28;20054;-79
2023/12/23 07:04:17;;;;;;;2.65;1.10;;;;;;;;;;4940178;28;20047;-80
2023/12/23 07:06:44;;;;;;;2.40;1.00;;;;;;;;;;4952376;28;20410;-80
2023/12/23 07:09:10;;;;;;;2.28;0.60;;;;;;;;;;4947225;28;20051;-79
2023/12/23 07:11:37;;;;;;;2.65;1.25;;;;;;;;;;4943054;28;20043;-80
2023/12/23 07:14:03;;;;;;;2.03;0.98;;;;;;;;;;4953280;28;20043;-80
2023/12/23 07:16:30;;;;;;;1.33;0.90;;;;;;;;;;4949568;28;20517;-80
2023/12/23 07:18:56;;;;;;;0.85;0.73;;;;;;;;;;4955728;28;20043;-80
2023/12/23 07:21:22;;;;;;;1.25;0.70;;;;;;;;;;4960572;28;20522;-80
2023/12/23 07:23:50;;;;;;;2.33;0.60;;;;;;;;;;5006953;28;20058;-81
2023/12/23 07:26:16;;;;;;;1.33;0.73;;;;;;;;;;4960917;28;20028;-81
2023/12/23 07:28:44;;;;;;;1.52;0.65;;;;;;;;;;5024701;28;20399;-80
2023/12/23 07:31:12;;;;;;;4.20;0.70;;;;;;;;;;4994886;28;20050;-79
2023/12/23 07:33:38;;;;;;;1.30;0.70;;;;;;;;;;4978528;28;20047;-80
2023/12/23 07:36:04;;;;;;;1.38;0.85;;;;;;;;;;4951013;28;20485;-79
2023/12/23 07:38:30;;;;;;;0.85;0.70;;;;;;;;;;4988051;28;20043;-80
2023/12/23 07:40:57;;;;;;;0.85;0.65;;;;;;;;;;4949147;28;20043;-80
2023/12/23 07:43:23;;;;;;;0.77;0.70;;;;;;;;;;4959615;28;20036;-79
2023/12/23 07:45:49;;;;;;;1.23;0.73;;;;;;;;;;4987237;28;20521;-80
2023/12/23 07:48:15;;;;;;;1.70;0.70;;;;;;;;;;4955525;28;20046;-80
2023/12/23 07:50:42;;;;;;;1.30;0.90;;;;;;;;;;4974767;28;20037;-79
2023/12/23 07:53:08;;;;;;;3.63;1.00;;;;;;;;;;4958247;28;20050;-79
2023/12/23 07:55:34;;;;;;;3.95;1.58;;;;;;;;;;4986423;28;20028;-80
2023/12/23 07:58:00;;;;;;;1.83;1.38;;;;;;;;;;4946693;28;20441;-79
2023/12/23 08:00:27;;;;;;;3.53;2.10;;;;;;;;;;4961207;28;20046;-79
2023/12/23 08:02:53;;;;;;;2.17;1.20;;;;;;;;;;4923997;28;20039;-79
2023/12/23 08:05:20;;;;;;;1.60;1.25;;;;;;;;;;4979196;28;20048;-79
2023/12/23 08:07:46;;;;;;;1.25;0.98;;;;;;;;;;4969792;28;20044;-81
2023/12/23 08:10:13;;;;;;;2.85;1.35;;;;;;;;;;4970620;28;20394;-79
2023/12/23 08:12:39;;;;;;;1.17;0.98;;;;;;;;;;4966520;28;20035;-80
2023/12/23 08:15:06;;;;;;;4.53;1.90;;;;;;;;;;4981240;28;20520;-78
2023/12/23 08:17:32;;;;;;;4.63;1.55;;;;;;;;;;4967137;28;20039;-80
2023/12/23 08:20:01;;;;;;;1.70;0.98;;;;;;;;;;4979320;28;20403;-79
2023/12/23 08:22:27;;;;;;;1.38;0.80;;;;;;;;;;4970398;28;20034;-80
2023/12/23 08:24:54;;;;;;;3.22;1.05;;;;;;;;;;4968883;28;20044;-79
2023/12/23 08:27:20;;;;;;;4.10;1.55;;;;;;;;;;4949285;28;20035;-78
2023/12/23 08:29:46;;;;;;;4.10;0.80;;;;;;;;;;4999165;28;20052;-79
2023/12/23 08:32:16;;;;;;;4.18;1.70;;;;;;;;;;4993731;28;20043;-80
2023/12/23 08:34:46;;;;;;;3.13;1.42;;;;;;;;;;4984914;28;20042;-80
2023/12/23 08:37:13;;;;;;;6.53;1.65;;;;;;;;;;5044607;28;20062;-79
2023/12/23 08:39:39;;;;;;;8.32;2.85;;;;;;;;;;4986969;28;20431;-79
2023/12/23 08:42:05;;;;;;;7.43;2.35;;;;;;;;;;4965837;28;20047;-78
2023/12/23 08:44:33;;;;;;;4.00;1.50;;;;;;;;;;4941185;28;20493;-78
2023/12/23 08:46:59;;;;;;;5.18;1.80;;;;;;;;;;4968442;28;20044;-80
2023/12/23 08:49:26;;;;;;;3.17;1.45;;;;;;;;;;4982612;28;20032;-79
2023/12/23 08:51:52;;;;;;;1.75;0.88;;;;;;;;;;4940555;28;20051;-80
2023/12/23 08:54:22;;;;;;;4.47;1.40;;;;;;;;;;4945663;28;20043;-80
2023/12/23 08:56:49;;;;;;;1.73;1.13;;;;;;;;;;4942148;28;20050;-80
2023/12/23 08:59:16;;;;;;;3.30;1.20;;;;;;;;;;4959920;28;20031;-80
2023/12/23 09:01:43;;;;;;;3.65;0.88;;;;;;;;;;4960010;28;20530;-81
2023/12/23 09:04:10;;;;;;;3.42;1.60;;;;;;;;;;4946951;28;20422;-79
2023/12/23 09:06:36;;;;;;;2.00;1.13;;;;;;;;;;4924194;28;20039;-80
2023/12/23 09:09:02;;;;;;;2.80;1.02;;;;;;;;;;4930770;28;20037;-77
2023/12/23 09:11:28;;;;;;;1.70;0.60;;;;;;;;;;4963510;28;20039;-79
2023/12/23 09:13:54;;;;;;;3.33;0.90;;;;;;;;;;4993921;28;20039;-80
2023/12/23 09:16:22;;;;;;;1.45;0.88;;;;;;;;;;4957143;28;20058;-79
2023/12/23 09:18:48;;;;;;;2.15;0.50;;;;;;;;;;5033475;28;20043;-79
2023/12/23 09:21:15;;;;;;;2.17;0.80;;;;;;;;;;4984411;28;20498;-80
2023/12/23 09:23:41;;;;;;;1.73;1.20;;;;;;;;;;4956802;28;20547;-80
2023/12/23 09:26:07;;;;;;;1.30;0.90;;;;;;;;;;4968218;28;20516;-79
2023/12/23 09:28:34;;;;;;;2.97;1.95;;;;;;;;;;4985097;28;20043;-79
2023/12/23 09:31:00;;;;;;;1.83;1.00;;;;;;;;;;4976269;28;20047;-79
2023/12/23 09:33:27;;;;;;;3.22;1.20;;;;;;;;;;4958627;28;20046;-79
2023/12/23 09:35:53;;;;;;;1.23;0.80;;;;;;;;;;4973022;28;20046;-80
2023/12/23 09:38:20;;;;;;;2.80;1.17;;;;;;;;;;4992498;28;20027;-82
2023/12/23 09:40:46;;;;;;;2.80;1.42;;;;;;;;;;5001320;28;20038;-79
2023/12/23 09:43:14;;;;;;;2.38;1.10;;;;;;;;;;4946807;28;20049;-79
2023/12/23 09:45:42;;;;;;;2.40;0.90;;;;;;;;;;4965641;28;20043;-79
2023/12/23 09:48:08;;;;;;;1.50;1.20;;;;;;;;;;4999812;28;20415;-80
2023/12/23 09:50:35;;;;;;;1.73;1.20;;;;;;;;;;4938526;28;20039;-80
2023/12/23 09:53:02;;;;;;;1.52;0.80;;;;;;;;;;4946883;28;20046;-79
2023/12/23 09:55:33;;;;;;;1.98;0.80;;;;;;;;;;4937419;28;20036;-81
2023/12/23 09:58:00;;;;;;;0.93;0.82;;;;;;;;;;4944621;28;20063;-79
2023/12/23 10:00:28;;;;;;;1.63;1.10;;;;;;;;;;4943453;28;20040;-80
2023/12/23 10:03:21;;;;;;;4.25;1.88;;;;;;;;;;4949412;28;20425;-79
2023/12/23 10:05:49;;;;;;;1.77;0.90;;;;;;;;;;4962129;28;20039;-79
2023/12/23 10:08:17;;;;;;;2.28;0.80;;;;;;;;;;4955602;28;20051;-79
2023/12/23 10:10:46;;;;;;;5.20;1.67;;;;;;;;;;4944041;28;20043;-79
2023/12/23 10:13:12;;;;;;;3.07;1.50;;;;;;;;;;4971799;28;20047;-79
2023/12/23 10:15:41;;;;;;;3.45;0.88;;;;;;;;;;4965886;28;20039;-80
2023/12/23 10:18:12;;;;;;;2.50;1.00;;;;;;;;;;4952628;28;20043;-79
2023/12/23 10:20:42;;;;;;;2.38;1.23;;;;;;;;;;4957716;28;20054;-79
2023/12/23 10:23:09;;;;;;;3.38;1.35;;;;;;;;;;4948002;28;20100;-79
2023/12/23 10:25:35;;;;;;;4.75;2.13;;;;;;;;;;4967306;28;20035;-79
2023/12/23 10:28:04;;;;;;;2.78;1.10;;;;;;;;;;4973278;28;20042;-79
2023/12/23 10:30:33;;;;;;;3.00;1.60;;;;;;;;;;4968767;28;20043;-80
2023/12/23 10:33:05;;;;;;;10.48;3.10;;;;;;;;;;4932197;28;20045;-77
2023/12/23 10:36:01;;;;;;;5.43;2.00;;;;;;;;;;4975594;28;20172;-77
2023/12/23 10:38:34;;;;;;;3.90;1.63;;;;;;;;;;4956807;28;20031;-77
2023/12/23 10:41:18;;;;;;;2.75;1.00;;;;;;;;;;4956539;28;20055;-79
2023/12/23 10:43:49;;;;;;;1.77;1.08;;;;;;;;;;4993799;28;20039;-79
2023/12/23 10:46:17;;;;;;;1.55;0.98;;;;;;;;;;4993042;28;20043;-78
2023/12/23 10:48:49;;;;;;;2.25;0.75;;;;;;;;;;4981359;28;20043;-79
2023/12/23 10:51:16;;;;;;;1.52;1.00;;;;;;;;;;4931042;28;20044;-79
2023/12/23 10:53:45;;;;;;;0.82;0.75;;;;;;;;;;4962905;28;20039;-79
2023/12/23 10:56:16;;;;;;;2.03;0.82;;;;;;;;;;4939541;28;20473;-79
2023/12/23 10:58:42;;;;;;;2.70;1.50;;;;;;;;;;4961702;28;20043;-79
2023/12/23 11:01:12;;;;;;;2.50;0.68;;;;;;;;;;4980881;28;20399;-79
2023/12/23 11:03:39;;;;;;;3.35;1.35;;;;;;;;;;4948117;28;20043;-79
2023/12/23 11:06:09;;;;;;;0.75;0.70;;;;;;;;;;4949217;28;20433;-79
2023/12/23 11:08:37;;;;;;;1.15;0.60;;;;;;;;;;4939330;28;20043;-79
2023/12/23 11:11:05;;;;;;;0.57;0.57;;;;;;;;;;4971901;28;20043;-79
2023/12/23 11:13:34;;;;;;;1.27;0.65;;;;;;;;;;4967957;28;20035;-79
2023/12/23 11:16:00;;;;;;;1.42;0.95;;;;;;;;;;4951293;28;20037;-79
2023/12/23 11:18:26;;;;;;;1.58;0.90;;;;;;;;;;4940821;28;20042;-79
2023/12/23 11:20:54;;;;;;;0.68;0.60;;;;;;;;;;4956276;28;20047;-79
2023/12/23 11:23:26;;;;;;;2.28;1.00;;;;;;;;;;4943314;28;20054;-79
2023/12/23 11:25:54;;;;;;;1.90;1.20;;;;;;;;;;4977822;28;20047;-79
2023/12/23 11:28:21;;;;;;;1.63;0.98;;;;;;;;;;4932332;28;20035;-79
2023/12/23 11:31:00;;;;;;;0.63;0.60;;;;;;;;;;4957745;28;20055;-79
2023/12/23 11:33:30;;;;;;;1.02;0.70;;;;;;;;;;4974437;28;20045;-78
2023/12/23 11:35:58;;;;;;;0.90;0.70;;;;;;;;;;4964762;28;20035;-79
2023/12/23 11:38:29;;;;;;;1.05;0.80;;;;;;;;;;4938514;28;20397;-78
2023/12/23 11:40:58;;;;;;;1.42;1.00;;;;;;;;;;4976450;28;20056;-79
2023/12/23 11:43:24;;;;;;;1.58;1.00;;;;;;;;;;4957762;28;20039;-79
2023/12/23 11:45:51;;;;;;;2.45;1.20;;;;;;;;;;4960527;28;20494;-78
2023/12/23 11:48:20;;;;;;;2.08;0.82;;;;;;;;;;4954998;28;20051;-79
2023/12/23 11:50:46;;;;;;;2.13;0.80;;;;;;;;;;4949248;28;20046;-79
2023/12/23 11:53:14;;;;;;;2.53;0.90;;;;;;;;;;4924727;28;20041;-79
2023/12/23 11:55:41;;;;;;;1.00;0.90;;;;;;;;;;4943723;28;20592;-78
2023/12/23 11:58:08;;;;;;;1.65;1.00;;;;;;;;;;4934574;28;20411;-80
2023/12/23 12:00:37;;;;;;;1.50;1.20;;;;;;;;;;4924536;28;20043;-80
2023/12/23 12:03:05;;;;;;;0.83;0.83;;;;;;;;;;4932166;28;20039;-79
2023/12/23 12:05:32;;;;;;;1.48;0.90;;;;;;;;;;4955838;28;20039;-80
2023/12/23 12:07:59;;;;;;;1.05;0.90;;;;;;;;;;4965203;28;20482;-79
2023/12/23 12:10:25;;;;;;;4.75;2.50;;;;;;;;;;4966544;28;20039;-78
2023/12/23 12:12:55;;;;;;;;;;;;;;;;;;4986255;28;20046;-79
2023/12/23 12:15:21;;;;;;;2.70;1.30;;;;;;;;;;4964807;28;19979;-80
2023/12/23 12:17:47;;;;;;;1.73;0.85;;;;;;;;;;4962349;28;20388;-80
2023/12/23 12:20:13;;;;;;;59.33;21.13;;;;;;;;;;4969628;28;20046;-77
2023/12/23 12:22:44;;;;;;;26.60;10.80;;;;;;;;;;4949857;28;20058;-78
2023/12/23 12:25:10;;;;;;;10.73;4.18;;;;;;;;;;4971972;28;20039;-78
2023/12/23 12:27:37;;;;;;;9.93;3.78;;;;;;;;;;4979466;28;20032;-78
2023/12/23 12:30:06;;;;;;;1.48;0.85;;;;;;;;;;4977357;28;20043;-79
2023/12/23 12:32:32;;;;;;;1.65;1.20;;;;;;;;;;4960798;28;20529;-79
2023/12/23 12:35:02;;;;;;;6.22;2.15;;;;;;;;;;4964305;28;20047;-80
2023/12/23 12:37:28;;;;;;;;;;;;;;;;;;4971851;28;20039;-80
2023/12/23 12:39:54;;;;;;;3.55;1.23;;;;;;;;;;4974174;28;19937;-80
2023/12/23 12:42:23;;;;;;;4.30;1.90;;;;;;;;;;4982830;28;20409;-80
2023/12/23 12:44:52;;;;;;;1.33;0.93;;;;;;;;;;4972444;28;20043;-79
2023/12/23 12:47:20;;;;;;;0.63;0.50;;;;;;;;;;4962739;28;20047;-78
2023/12/23 12:49:46;;;;;;;2.47;0.90;;;;;;;;;;4969312;28;20498;-78
2023/12/23 12:52:13;;;;;;;1.60;0.90;;;;;;;;;;4961159;28;20052;-79
2023/12/23 12:54:42;;;;;;;0.93;0.70;;;;;;;;;;4966370;28;20043;-79
2023/12/23 12:57:11;;;;;;;;;;;;;;;;;;4941232;28;20039;-78
2023/12/23 12:59:37;;;;;;;1.88;0.63;;;;;;;;;;4971170;28;20326;-79
2023/12/23 13:02:07;;;;;;;1.30;0.90;;;;;;;;;;4958749;28;20506;-79
2023/12/23 13:04:34;;;;;;;2.10;1.05;;;;;;;;;;4975135;28;20039;-79
2023/12/23 13:07:01;;;;;;;3.22;1.13;;;;;;;;;;4953725;28;20029;-79
2023/12/23 13:09:27;;;;;;;1.38;0.82;;;;;;;;;;4974541;28;20035;-79
2023/12/23 13:11:54;;;;;;;1.00;0.82;;;;;;;;;;5010690;28;20047;-79
2023/12/23 13:14:20;;;;;;;2.50;1.02;;;;;;;;;;4969951;28;20519;-79
2023/12/23 13:16:46;;;;;;;1.73;1.05;;;;;;;;;;4956690;28;20043;-79
2023/12/23 13:19:13;;;;;;;1.27;0.98;;;;;;;;;;4928797;28;20062;-79
2023/12/23 13:21:39;;;;;;;1.92;1.02;;;;;;;;;;4959119;28;20050;-78
2023/12/23 13:24:05;;;;;;;1.20;0.70;;;;;;;;;;4948801;28;20293;-79
2023/12/23 13:26:32;;;;;;;2.53;1.30;;;;;;;;;;4959148;28;20047;-79
2023/12/23 13:28:58;;;;;;;1.35;0.88;;;;;;;;;;4955491;28;20043;-78
2023/12/23 13:31:24;;;;;;;1.75;0.90;;;;;;;;;;4953618;28;20481;-78
2023/12/23 13:33:53;;;;;;;1.50;1.10;;;;;;;;;;4939497;28;20043;-77
2023/12/23 13:36:23;;;;;;;3.33;1.73;;;;;;;;;;4961923;28;20130;-76
2023/12/23 13:38:49;;;;;;;1.23;0.80;;;;;;;;;;5007706;28;20041;-76
2023/12/23 13:41:24;;;;;;;1.20;0.70;;;;;;;;;;4987007;28;20039;-76
2023/12/23 13:43:50;;;;;;;2.85;0.90;;;;;;;;;;4969539;28;20039;-77
2023/12/23 13:46:16;;;;;;;2.42;1.40;;;;;;;;;;4960531;28;20533;-77
2023/12/23 13:48:43;;;;;;;3.90;1.10;;;;;;;;;;4950999;28;20043;-78
2023/12/23 13:51:10;;;;;;;4.18;1.20;;;;;;;;;;4958506;28;20035;-78
2023/12/23 13:53:36;;;;;;;1.67;0.82;;;;;;;;;;4966490;28;20028;-78
2023/12/23 13:56:08;;;;;;;1.55;0.80;;;;;;;;;;4980271;28;20493;-78
2023/12/23 13:58:35;;;;;;;16.08;3.95;;;;;;;;;;4944116;28;20043;-78
2023/12/23 14:01:01;;;;;;;5.18;2.25;;;;;;;;;;4945578;22;20054;-54
2023/12/23 14:03:28;;;;;;;2.80;1.52;;;;;;;;;;4960643;28;20061;-56
2023/12/23 14:05:58;;;;;;;6.03;2.10;;;;;;;;;;4967040;28;20050;-59
2023/12/23 14:08:24;;;;;;;10.63;3.33;;;;;;;;;;4965784;28;20043;-56
2023/12/23 14:10:50;;;;;;;3.63;1.40;;;;;;;;;;4957034;28;20062;-54
2023/12/23 14:13:16;;;;;;;1.35;0.90;;;;;;;;;;4952333;28;20039;-56
2023/12/23 14:15:43;;;;;;;2.53;2.00;;;;;;;;;;4942960;28;20036;-55
2023/12/23 14:18:09;;;;;;;0.95;0.85;;;;;;;;;;4951154;28;20047;-54
2023/12/23 14:20:36;;;;;;;8.13;1.73;;;;;;;;;;4962085;28;20392;-57
2023/12/23 14:23:03;;;;;;;0.98;0.82;;;;;;;;;;4954705;28;20059;-55
2023/12/23 14:25:30;;;;;;;6.75;2.22;;;;;;;;;;4952544;28;20035;-57
2023/12/23 14:27:56;;;;;;;1.92;1.30;;;;;;;;;;4990196;28;20056;-56
2023/12/23 14:30:22;;;;;;;2.17;1.00;;;;;;;;;;4964915;28;20047;-55
2023/12/23 14:32:48;;;;;;;1.25;0.98;;;;;;;;;;4986381;28;20066;-57
2023/12/23 14:35:14;;;;;;;5.00;1.73;;;;;;;;;;4961580;28;20470;-56
2023/12/23 14:37:40;;;;;;;2.08;1.17;;;;;;;;;;4972795;28;20035;-56
2023/12/23 14:40:07;;;;;;;1.08;0.80;;;;;;;;;;4958221;28;20029;-56
2023/12/23 14:42:33;;;;;;;2.95;1.90;;;;;;;;;;4984030;28;20032;-55
2023/12/23 14:45:00;;;;;;;4.85;2.33;;;;;;;;;;4992130;28;20035;-57
2023/12/23 14:47:26;;;;;;;1.55;1.00;;;;;;;;;;4954215;28;20043;-57
2023/12/23 14:49:52;;;;;;;1.17;0.80;;;;;;;;;;4955967;28;20051;-58
2023/12/23 14:52:18;;;;;;;1.67;0.90;;;;;;;;;;4960255;28;20042;-58